Pagina principală
METAR-TAF:

METAR-TAF

Aeroporturi :

Oklahoma City, Oklahoma, Statele Unite ale Americii

Latitudine: 35-29-17N, longitudine: 097-49-25W, elevație: 413 m

Observații meteo curente

Raportul a fost făcut în urmă cu 21 de minute, la 21:15 UTC
Vânt 16 kt de la Sud/Sud-vest cu rafale de până la 24 kt
Temperatură 36°C
Umiditate 35%
Presiune 1014 hPa
Vizibilitate: 16.1 km
Cer senin

METAR: KRCE 222115Z AUTO 20016G24KT 10SM CLR 36/18 A2994 RMK AO2 TSNO

Ora: 16:36 (21:36 UTC)


TAF: lipsă

Observații și prognoze meteo pentru peste 4.000 de aeroporturi (rapoarte METAR și TAF).

Stațiile disponibile sunt reprezentate pe hartă prin puncte galbene și roșii.

Țineți indicatorul mouse-ului pe punctul dorit pentru a vedea denumirea stației.

Apoi, faceți clic pentru a vedea observațiile și prognozele meteorologice.

Pentru a schimba harta: Pentru mărire, faceți clic pe butoanele verzi cu cruce neagră; pentru micșorare, pe butonul verde cu o liniuță; pentru hărți învecinate, pe săgețile verzi.


METAR-TAF: